Impacts TAF Board INFO
FOR SITUATIONAL AWARENESS. NOT TO BE USED FOR FLIGHT PLANNING PURPOSES.
IDs:

KPDX - Portland Intl Arpt, OR, US

Issued at 0857 UTC 18 Dec 2017
Updated at 1050 UTC 18 Dec 2017
Potential Impact None Slight Moderate High
Time0853Z 18/11Z 18/12Z 18/13Z 18/14Z 18/15Z 18/16Z 18/17Z 18/18Z 18/19Z 18/20Z 18/21Z 18/22Z 18/23Z>>
Type OBS PRVL PRVL PRVL PRVL PRVL PRVL PRVL PRVL PRVL PRVL PRVL PRVL PRVL
VIS 10 >6 >6 >6 >6 >6 >6 >6 >6 >6 >6 >6 5 5
CIG 24 25 25 25 25 25 25 25 25 25 25 25 22 22
Cover OVC OVC OVC OVC OVC OVC OVC OVC OVC OVC OVC OVC OVC OVC
FltCat MVFR MVFR MVFR MVFR MVFR MVFR MVFR MVFR MVFR MVFR MVFR MVFR MVFR MVFR
WX -- VCSH VCSH VCSH VCSH VCSH VCSH VCSH VCSH VCSH VCSH VCSH -RA BR -RA BR
WDir 150 180 180 180 180 180 180 180 180 180 180 180 170 170
WSpd 6 7 7 7 7 7 7 7 7 7 7 7 6 6
WGst -- -- -- -- -- -- -- -- -- -- -- -- -- --

Raw TAF
KPDX 180857Z 1809/1906 18007KT P6SM VCSH BKN025 OVC035
  FM182200 17006KT 5SM -RA BR BKN022 OVC045
  FM190300 18006KT P6SM SCT025 OVC040


Raw METAR
KPDX 180853Z 15006KT 10SM OVC024 09/04 A3013 RMK AO2 SLP201 T00890044 58004 $
KPDX 180753Z 17005KT 10SM OVC029 08/04 A3014 RMK AO2 SLP204 T00830039 400940050 $
KPDX 180743Z 18007KT 10SM OVC029 08/04 A3014 RMK AO2 T00830039 $

METAR Board
Radar Display
Forecast Discussion

FOR SITUATIONAL AWARENESS. NOT TO BE USED FOR FLIGHT PLANNING PURPOSES.